Time;durP1;ratioP1;P1;durP2;ratioP2;P2;SDS_P1;SDS_P2;PMS_P1;PMS_P2;Temp;Humidity;BMP_temperature;BMP_pressure;BME280_temperature;BME280_humidity;BME280_pressure;Samples;Min_cycle;Max_cycle;Signal;HPM_P1;HPM_P2
2022/06/18 00:00:50;;;;;;;2.17;2.00;;;;;;;24.58;39.57;100429.81;4974465;28;20052;-93
2022/06/18 00:03:18;;;;;;;2.25;2.05;;;;;;;24.54;40.70;100436.72;4959496;28;20052;-92
2022/06/18 00:05:47;;;;;;;3.00;2.30;;;;;;;24.47;41.20;100434.00;4986122;28;20061;-95
2022/06/18 00:08:26;;;;;;;3.58;2.10;;;;;;;24.40;41.39;100439.44;4985110;28;20041;-87
2022/06/18 00:13:39;;;;;;;2.83;2.20;;;;;;;24.33;42.09;100441.31;4955268;28;20050;-87
2022/06/18 00:13:49;;;;;;;4.20;2.30;;;;;;;24.32;41.17;100439.63;4939755;28;20060;-87
2022/06/18 00:16:20;;;;;;;2.60;2.28;;;;;;;24.19;40.27;100437.78;4973078;28;20099;-87
2022/06/18 00:18:48;;;;;;;21.57;2.93;;;;;;;24.26;40.14;100437.78;4984935;28;20049;-87
2022/06/18 00:21:17;;;;;;;3.75;2.47;;;;;;;24.29;40.03;100447.38;4980577;28;20406;-87
2022/06/18 00:23:44;;;;;;;5.15;2.67;;;;;;;24.34;39.94;100440.25;4964868;28;20050;-87
2022/06/18 00:26:11;;;;;;;5.75;2.47;;;;;;;24.34;39.68;100442.97;4955824;28;20038;-87
2022/06/18 00:28:39;;;;;;;4.10;2.45;;;;;;;24.34;39.76;100442.97;4985601;28;21226;-88
2022/06/18 00:31:06;;;;;;;2.75;2.50;;;;;;;24.35;39.81;100443.81;4963257;28;20050;-87
2022/06/18 00:33:36;;;;;;;2.33;2.13;;;;;;;24.31;39.69;100440.69;4965510;28;20390;-87
2022/06/18 00:36:04;;;;;;;4.07;2.28;;;;;;;24.29;40.06;100436.53;4982050;28;20038;-87
2022/06/18 00:38:34;;;;;;;4.05;2.33;;;;;;;24.27;39.89;100434.88;4993676;28;20157;-87
2022/06/18 00:41:01;;;;;;;2.97;2.38;;;;;;;24.23;40.12;100430.88;5003576;28;20054;-85
2022/06/18 00:43:29;;;;;;;4.45;2.40;;;;;;;24.22;40.02;100434.66;4968099;28;20579;-80
2022/06/18 00:46:01;;;;;;;4.43;2.30;;;;;;;24.20;40.19;100433.22;4936765;28;20046;-80
2022/06/18 00:48:41;;;;;;;2.65;2.40;;;;;;;24.15;40.44;100433.00;4968253;28;20046;-80
2022/06/18 00:51:10;;;;;;;4.57;2.70;;;;;;;24.12;40.17;100428.81;4977460;28;20052;-80
2022/06/18 00:53:42;;;;;;;3.92;2.50;;;;;;;24.12;40.27;100430.69;4961841;28;20566;-80
2022/06/18 00:56:34;;;;;;;3.43;2.50;;;;;;;24.07;40.62;100428.63;4893229;28;20049;-80
2022/06/18 00:59:07;;;;;;;2.35;2.15;;;;;;;24.07;40.32;100422.34;4996179;28;21051;-80
2022/06/18 01:01:38;;;;;;;2.33;2.13;;;;;;;24.03;40.37;100422.75;4967874;28;20077;-80
2022/06/18 01:04:25;;;;;;;4.25;2.83;;;;;;;24.02;40.68;100417.56;4972093;28;20537;-80
2022/06/18 01:07:05;;;;;;;2.75;2.25;;;;;;;24.00;40.53;100416.94;4969512;28;20065;-93
2022/06/18 01:09:32;;;;;;;3.42;2.60;;;;;;;23.95;40.34;100409.41;4975853;28;20402;-95
2022/06/18 01:12:00;;;;;;;5.72;2.80;;;;;;;23.93;40.50;100411.50;4992044;28;20045;-95
2022/06/18 01:18:56;;;;;;;2.50;2.30;;;;;;;23.85;40.43;100400.88;4959273;28;20041;-93
2022/06/18 01:21:36;;;;;;;2.90;2.63;;;;;;;23.81;40.88;100405.88;4972953;28;20501;-94
2022/06/18 01:24:16;;;;;;;4.65;2.10;;;;;;;23.78;40.75;100400.03;4982579;28;20100;-94
2022/06/18 01:26:47;;;;;;;6.60;2.65;;;;;;;23.73;40.67;100399.81;4970210;28;20450;-87
2022/06/18 01:29:15;;;;;;;2.90;2.30;;;;;;;23.70;40.85;100397.50;4955336;28;20092;-82
2022/06/18 01:31:43;;;;;;;3.28;2.45;;;;;;;23.68;41.04;100399.56;4968072;28;20115;-81
2022/06/18 01:34:10;;;;;;;6.97;2.40;;;;;;;23.65;40.81;100389.97;4977609;28;20050;-81
2022/06/18 01:36:41;;;;;;;3.42;2.47;;;;;;;23.64;41.06;100393.75;4955188;28;20117;-92
2022/06/18 01:39:12;;;;;;;2.67;2.40;;;;;;;23.62;40.79;100388.53;4982371;28;20045;-91
2022/06/18 01:41:50;;;;;;;3.38;2.60;;;;;;;23.59;41.12;100397.06;4961693;28;20378;-91
2022/06/18 01:44:47;;;;;;;3.47;2.50;;;;;;;23.55;41.19;100376.00;4944306;28;20055;-92
2022/06/18 01:47:27;;;;;;;2.53;2.33;;;;;;;23.52;41.32;100381.84;4937511;28;20449;-94
2022/06/18 01:50:08;;;;;;;3.92;2.78;;;;;;;23.50;41.13;100378.50;4963491;28;20047;-94
2022/06/18 01:52:38;;;;;;;;;;;;;;;23.49;41.12;100376.84;4958748;28;20049;-93
2022/06/18 01:55:13;;;;;;;3.28;2.40;;;;;;;23.50;40.98;100378.50;4939422;28;20000;-88
2022/06/18 01:57:45;;;;;;;2.88;2.28;;;;;;;23.46;40.90;100378.09;4954886;28;20092;-93
2022/06/18 02:00:21;;;;;;;3.55;2.50;;;;;;;23.40;41.07;100368.06;4987915;28;20085;-94
2022/06/18 02:02:54;;;;;;;2.92;2.60;;;;;;;23.38;41.13;100371.00;4951067;28;20038;-80
2022/06/18 02:05:22;;;;;;;3.58;2.50;;;;;;;23.33;41.00;100365.38;4965658;28;20054;-80
2022/06/18 02:07:50;;;;;;;2.80;2.60;;;;;;;23.32;41.25;100363.69;4984084;28;20404;-80
2022/06/18 02:10:31;;;;;;;3.13;2.47;;;;;;;23.27;41.81;100359.94;4968324;28;20049;-80
2022/06/18 02:13:01;;;;;;;2.65;2.45;;;;;;;23.26;41.41;100360.97;4964530;28;20120;-83
2022/06/18 02:15:30;;;;;;;3.05;2.67;;;;;;;23.23;41.25;100359.50;4965064;28;20053;-83
2022/06/18 02:18:01;;;;;;;2.53;2.33;;;;;;;23.19;41.47;100361.78;4979085;28;20128;-83
2022/06/18 02:20:29;;;;;;;4.85;2.58;;;;;;;23.19;41.21;100355.53;4978971;28;20067;-80
2022/06/18 02:22:56;;;;;;;4.68;2.28;;;;;;;23.18;41.29;100354.72;4960647;28;20113;-80
2022/06/18 02:25:26;;;;;;;3.78;2.72;;;;;;;23.16;41.37;100348.66;4967916;28;20395;-80
2022/06/18 02:27:59;;;;;;;3.08;2.38;;;;;;;23.13;41.71;100350.94;4966838;28;20049;-81
2022/06/18 02:30:28;;;;;;;3.28;2.35;;;;;;;23.10;41.62;100346.78;4965221;28;20398;-80
2022/06/18 02:33:13;;;;;;;3.08;2.78;;;;;;;23.07;41.73;100344.44;4967855;28;20077;-80
2022/06/18 02:35:40;;;;;;;2.63;2.42;;;;;;;23.03;41.74;100343.22;4938439;28;20049;-91
2022/06/18 02:38:17;;;;;;;3.97;2.60;;;;;;;22.99;41.90;100351.94;4964654;28;20049;-87
2022/06/18 02:40:44;;;;;;;2.70;2.40;;;;;;;22.98;41.55;100344.88;4962920;28;20100;-85
2022/06/18 02:43:11;;;;;;;3.38;2.40;;;;;;;22.93;41.69;100357.09;4960479;28;20402;-87
2022/06/18 02:45:38;;;;;;;2.88;2.60;;;;;;;22.94;41.96;100355.22;4964327;28;20089;-87
2022/06/18 02:48:09;;;;;;;4.65;2.55;;;;;;;22.91;41.82;100352.94;4969008;28;20054;-85
2022/06/18 02:50:38;;;;;;;4.03;3.20;;;;;;;22.85;41.91;100356.47;4974771;28;20042;-92
2022/06/18 02:53:07;;;;;;;5.90;2.78;;;;;;;22.87;41.61;100366.06;4968248;28;20060;-94
2022/06/18 02:55:36;;;;;;;4.50;2.60;;;;;;;22.69;41.94;100369.28;4980697;28;20050;-92
2022/06/18 02:58:27;;;;;;;3.72;2.40;;;;;;;22.70;42.27;100367.44;4993605;28;20072;-92
2022/06/18 03:00:57;;;;;;;3.10;2.50;;;;;;;22.71;42.05;100371.81;4925853;28;20061;-92
2022/06/18 03:03:28;;;;;;;3.97;2.60;;;;;;;22.70;42.13;100367.44;4962659;28;20103;-92
2022/06/18 03:05:55;;;;;;;3.75;2.58;;;;;;;22.69;42.06;100363.88;4968910;28;20097;-91
2022/06/18 03:08:22;;;;;;;2.53;2.33;;;;;;;22.68;42.17;100369.53;4954100;28;20038;-92
2022/06/18 03:13:39;;;;;;;3.90;2.33;;;;;;;22.60;42.28;100362.41;4957161;28;20726;-87
2022/06/18 03:16:09;;;;;;;2.45;2.25;;;;;;;22.57;42.48;100361.97;4987721;28;20042;-87
2022/06/18 03:18:38;;;;;;;3.10;2.67;;;;;;;22.53;42.59;100365.06;4965760;28;20493;-82
2022/06/18 03:21:24;;;;;;;3.97;2.58;;;;;;;22.49;43.01;100361.13;4953827;28;20420;-83
2022/06/18 03:23:53;;;;;;;4.45;2.58;;;;;;;22.46;42.47;100358.78;4981434;28;20060;-82
2022/06/18 03:26:20;;;;;;;4.72;2.60;;;;;;;22.41;42.63;100355.84;4962849;28;20056;-82
2022/06/18 03:28:52;;;;;;;3.72;2.65;;;;;;;22.40;43.00;100361.47;4981233;28;20050;-82
2022/06/18 03:32:10;;;;;;;8.75;2.55;;;;;;;22.36;43.55;100361.03;4981797;28;20052;-92
2022/06/18 03:34:38;;;;;;;4.60;2.65;;;;;;;22.39;43.00;100362.50;4963838;28;20056;-92
2022/06/18 03:37:05;;;;;;;2.78;2.47;;;;;;;22.35;43.34;100362.06;4999422;28;20038;-92
2022/06/18 03:39:33;;;;;;;2.55;2.35;;;;;;;22.34;43.33;100360.41;4986334;28;20046;-92
2022/06/18 03:42:00;;;;;;;5.78;2.50;;;;;;;22.36;43.33;100362.91;4978501;28;20054;-92
2022/06/18 03:44:27;;;;;;;4.50;2.63;;;;;;;22.35;43.21;100356.66;4984226;28;20092;-91
2022/06/18 03:46:56;;;;;;;4.78;2.67;;;;;;;22.40;43.23;100372.31;4968857;28;20054;-92
2022/06/18 03:49:31;;;;;;;3.42;2.50;;;;;;;22.47;43.09;100368.59;4977163;28;20046;-92
2022/06/18 03:52:02;;;;;;;3.70;2.47;;;;;;;22.48;42.86;100372.13;4960776;28;20057;-93
2022/06/18 03:54:28;;;;;;;2.80;2.60;;;;;;;22.52;42.50;100368.00;4954595;28;20046;-94
2022/06/18 03:56:56;;;;;;;2.20;2.10;;;;;;;22.53;42.67;100366.94;4949848;28;20057;-94
2022/06/18 03:59:25;;;;;;;7.00;2.70;;;;;;;22.58;42.51;100364.47;4957664;28;20370;-92
2022/06/18 04:01:52;;;;;;;3.35;2.63;;;;;;;22.61;42.63;100365.94;4991903;28;20046;-92
2022/06/18 04:04:21;;;;;;;3.92;2.40;;;;;;;22.65;42.87;100359.09;4962761;28;20070;-93
2022/06/18 04:06:53;;;;;;;2.75;2.55;;;;;;;22.69;42.66;100355.75;4967382;28;20149;-94
2022/06/18 04:09:36;;;;;;;2.88;2.35;;;;;;;22.74;42.89;100364.16;4947437;28;20044;-90
2022/06/18 04:12:07;;;;;;;4.13;2.42;;;;;;;22.83;42.60;100367.50;4956690;28;20054;-91
2022/06/18 04:15:00;;;;;;;;;;;;;;;22.86;42.52;100356.25;4955638;28;20052;-92
2022/06/18 04:22:02;;;;;;;2.78;2.45;;;;;;;22.98;42.45;100364.66;4983738;28;20029;-87
2022/06/18 04:24:43;;;;;;;3.03;2.67;;;;;;;23.01;42.01;100358.00;4952085;28;20069;-87
2022/06/18 04:27:10;;;;;;;3.95;2.60;;;;;;;23.00;42.37;100361.72;4967329;28;20049;-87
2022/06/18 04:29:37;;;;;;;3.13;2.60;;;;;;;23.01;42.09;100360.72;4955101;28;20049;-88
2022/06/18 04:32:05;;;;;;;2.85;2.55;;;;;;;23.04;42.02;100371.97;4980171;28;20046;-83
2022/06/18 04:34:33;;;;;;;3.38;2.65;;;;;;;23.07;41.92;100366.13;4969881;28;20478;-82
2022/06/18 04:37:20;;;;;;;5.63;3.20;;;;;;;23.10;42.14;100365.75;4965979;28;20061;-83
2022/06/18 04:39:59;;;;;;;2.75;2.55;;;;;;;23.12;41.82;100362.81;4951756;28;20495;-83
2022/06/18 04:42:46;;;;;;;3.00;2.67;;;;;;;23.18;42.24;100364.72;4936768;28;20560;-83
2022/06/18 04:45:13;;;;;;;2.97;2.70;;;;;;;23.17;42.01;100366.56;4985155;28;20092;-93
2022/06/18 04:47:48;;;;;;;3.35;2.55;;;;;;;23.18;41.92;100376.38;5002639;28;20049;-90
2022/06/18 04:50:22;;;;;;;3.35;2.40;;;;;;;23.25;42.18;100379.09;4974459;28;20041;-92
2022/06/18 04:52:49;;;;;;;3.38;2.67;;;;;;;23.28;41.87;100372.41;4956868;28;20125;-87
2022/06/18 04:55:16;;;;;;;3.40;2.75;;;;;;;23.29;41.88;100376.81;4978269;28;20038;-83
2022/06/18 04:57:43;;;;;;;3.40;2.80;;;;;;;23.32;41.95;100371.81;4985128;28;20058;-83
2022/06/18 05:00:11;;;;;;;4.35;2.45;;;;;;;23.34;41.71;100377.03;4970222;28;20052;-92
2022/06/18 05:03:18;;;;;;;2.85;2.65;;;;;;;23.30;41.91;100376.59;4926703;28;20100;-92
2022/06/18 05:06:06;;;;;;;4.50;2.60;;;;;;;23.29;42.00;100374.09;4961338;28;20046;-92
2022/06/18 05:09:11;;;;;;;3.20;2.53;;;;;;;23.23;41.88;100380.34;4877364;29;20079;-91
2022/06/18 05:11:56;;;;;;;3.47;3.17;;;;;;;23.16;41.94;100380.34;4903454;29;20130;-93
2022/06/18 05:14:37;;;;;;;4.25;2.90;;;;;;;23.11;42.36;100372.81;4976707;28;20129;-91
2022/06/18 05:17:29;;;;;;;4.03;3.35;;;;;;;23.05;42.53;100372.78;4972426;28;20053;-91
2022/06/18 05:19:57;;;;;;;4.80;2.97;;;;;;;23.09;42.44;100371.34;4935769;28;20436;-92
2022/06/18 05:22:25;;;;;;;3.08;2.75;;;;;;;23.12;42.81;100370.94;4958295;28;20065;-92
2022/06/18 05:24:59;;;;;;;3.83;3.20;;;;;;;23.15;42.55;100368.66;4962818;28;20124;-91
2022/06/18 05:27:31;;;;;;;4.53;3.28;;;;;;;23.16;42.78;100356.78;4962148;28;20077;-83
2022/06/18 05:30:04;;;;;;;4.15;3.00;;;;;;;23.23;43.14;100362.22;4985366;28;20057;-80
2022/06/18 05:32:39;;;;;;;3.33;2.72;;;;;;;23.31;43.25;100359.31;4946380;28;20053;-81
2022/06/18 05:35:06;;;;;;;3.60;2.88;;;;;;;23.38;43.09;100360.16;4996623;28;20417;-80
2022/06/18 05:37:34;;;;;;;4.30;2.88;;;;;;;23.42;42.84;100343.47;4954561;28;20065;-80
2022/06/18 05:40:02;;;;;;;4.80;3.20;;;;;;;23.40;43.26;100347.22;4982657;28;20076;-81
2022/06/18 05:42:29;;;;;;;5.63;3.05;;;;;;;23.40;42.96;100340.97;4968168;28;20042;-81
2022/06/18 05:44:56;;;;;;;3.30;2.97;;;;;;;23.37;42.93;100336.78;4980960;28;20052;-81
2022/06/18 05:47:30;;;;;;;3.42;3.13;;;;;;;23.37;43.30;100338.66;4968131;28;20050;-81
2022/06/18 05:49:58;;;;;;;3.78;2.88;;;;;;;23.38;42.97;100338.47;4982671;28;20062;-83
2022/06/18 05:52:29;;;;;;;3.22;3.03;;;;;;;23.36;43.14;100335.13;4950641;28;20050;-83
2022/06/18 05:55:01;;;;;;;3.63;3.30;;;;;;;23.36;43.17;100335.13;4952023;28;20041;-80
2022/06/18 05:57:55;;;;;;;3.63;3.33;;;;;;;23.36;43.36;100337.03;4940152;28;20573;-80
2022/06/18 06:00:30;;;;;;;3.83;3.53;;;;;;;23.39;43.65;100323.88;4953238;28;20042;-89
2022/06/18 06:03:01;;;;;;;;;;;;;;;23.42;43.34;100321.78;4965774;28;20508;-88
2022/06/18 06:05:28;;;;;;;3.45;3.15;;;;;;;23.53;43.67;100332.00;4972319;28;19925;-82
2022/06/18 06:07:56;;;;;;;6.07;3.15;;;;;;;23.55;43.06;100332.63;4949983;28;20537;-79
2022/06/18 06:13:22;;;;;;;11.82;3.50;;;;;;;23.61;43.44;100329.94;4963575;28;20501;-79
2022/06/18 06:15:52;;;;;;;3.45;2.67;;;;;;;23.62;43.71;100328.88;4965596;28;20046;-79
2022/06/18 06:18:26;;;;;;;3.47;2.92;;;;;;;23.68;43.46;100329.09;4969989;28;20398;-80
2022/06/18 06:20:54;;;;;;;3.47;3.03;;;;;;;23.72;43.54;100319.50;4960527;28;20054;-79
2022/06/18 06:23:21;;;;;;;5.22;3.30;;;;;;;23.79;43.28;100328.50;4969446;28;20046;-79
2022/06/18 06:25:50;;;;;;;3.53;3.15;;;;;;;23.83;43.32;100324.31;4969097;28;20647;-79
2022/06/18 06:28:23;;;;;;;3.63;3.13;;;;;;;23.86;43.22;100328.47;4952218;28;20144;-79
2022/06/18 06:30:55;;;;;;;3.58;3.03;;;;;;;23.89;43.14;100323.47;4930284;28;20089;-80
2022/06/18 06:33:23;;;;;;;3.42;3.13;;;;;;;24.00;43.25;100322.81;4996003;28;20046;-85
2022/06/18 06:35:51;;;;;;;3.42;2.92;;;;;;;24.01;43.35;100323.66;4986412;28;20050;-85
2022/06/18 06:38:18;;;;;;;3.97;3.17;;;;;;;24.07;43.65;100317.38;4968877;28;20053;-84
2022/06/18 06:40:46;;;;;;;4.50;3.10;;;;;;;24.16;43.72;100323.41;4979968;28;20050;-85
2022/06/18 06:43:14;;;;;;;3.22;2.85;;;;;;;24.17;43.53;100327.78;4997494;28;20153;-85
2022/06/18 06:45:41;;;;;;;3.53;3.10;;;;;;;24.16;43.04;100320.69;4983114;28;20484;-85
2022/06/18 06:48:09;;;;;;;3.25;3.00;;;;;;;24.16;42.94;100321.53;4980805;28;20387;-85
2022/06/18 06:50:37;;;;;;;3.55;3.22;;;;;;;24.26;43.04;100324.63;4998504;28;20084;-84
2022/06/18 06:53:05;;;;;;;4.45;3.30;;;;;;;24.26;43.16;100321.06;4976630;28;20484;-85
2022/06/18 06:58:22;;;;;;;4.00;3.13;;;;;;;24.32;42.86;100306.63;4939802;28;20038;-85
2022/06/18 07:00:52;;;;;;;4.40;3.50;;;;;;;24.36;42.93;100313.31;4984931;28;20045;-79
2022/06/18 07:03:25;;;;;;;4.15;3.20;;;;;;;24.34;43.13;100312.69;4964709;28;20046;-79
2022/06/18 07:05:51;;;;;;;3.40;3.20;;;;;;;24.38;42.53;100321.25;4960137;28;20042;-85
2022/06/18 07:08:18;;;;;;;3.47;3.15;;;;;;;24.39;42.91;100314.78;4994635;28;20054;-85
2022/06/18 07:10:48;;;;;;;3.42;3.10;;;;;;;24.40;43.60;100308.28;4942511;28;20052;-85
2022/06/18 07:13:15;;;;;;;3.30;3.00;;;;;;;24.48;44.05;100310.81;4979332;28;20476;-85
2022/06/18 07:15:42;;;;;;;4.10;3.08;;;;;;;24.53;44.16;100307.47;4979439;28;20503;-80
2022/06/18 07:18:14;;;;;;;3.33;3.03;;;;;;;24.56;43.90;100317.88;4996889;28;20053;-85
2022/06/18 07:20:42;;;;;;;3.20;2.90;;;;;;;24.63;44.32;100315.97;4981319;28;20511;-82
2022/06/18 07:23:12;;;;;;;3.88;3.47;;;;;;;24.63;44.40;100313.25;4954007;28;20051;-82
2022/06/18 07:25:40;;;;;;;3.60;2.95;;;;;;;24.63;44.44;100308.66;4982638;28;20058;-87
2022/06/18 07:28:07;;;;;;;4.63;3.08;;;;;;;24.64;44.53;100299.44;4992668;28;20100;-88
2022/06/18 07:30:34;;;;;;;4.60;3.33;;;;;;;24.70;44.69;100303.16;4948316;28;20046;-88
2022/06/18 07:33:01;;;;;;;3.47;3.17;;;;;;;24.74;44.32;100293.53;4979147;28;20117;-88
2022/06/18 07:35:29;;;;;;;5.18;2.97;;;;;;;24.77;44.49;100300.44;4998899;28;20046;-88
2022/06/18 07:37:57;;;;;;;4.20;2.90;;;;;;;24.77;44.44;100298.53;4968835;28;20057;-88
2022/06/18 07:40:26;;;;;;;4.20;3.20;;;;;;;24.82;44.45;100296.00;4963588;28;20105;-87
2022/06/18 07:42:53;;;;;;;7.40;3.60;;;;;;;24.85;44.26;100286.59;4990654;28;20383;-87
2022/06/18 07:45:22;;;;;;;4.43;3.40;;;;;;;24.85;44.68;100286.59;4997605;28;20041;-87
2022/06/18 07:47:50;;;;;;;4.03;3.53;;;;;;;24.87;44.64;100279.88;4995063;28;20054;-80
2022/06/18 07:50:18;;;;;;;6.00;3.10;;;;;;;24.89;44.84;100277.78;4977836;28;20046;-80
2022/06/18 07:52:45;;;;;;;4.43;3.40;;;;;;;24.88;45.04;100275.28;4981745;28;20058;-81
2022/06/18 07:55:30;;;;;;;4.25;3.47;;;;;;;24.86;45.16;100272.78;4950811;28;20056;-81
2022/06/18 07:57:57;;;;;;;5.55;3.42;;;;;;;24.92;45.32;100261.03;4985980;28;20132;-81
2022/06/18 08:00:24;;;;;;;5.18;3.60;;;;;;;24.99;45.68;100260.19;4969992;28;20077;-81
2022/06/18 08:02:51;;;;;;;5.10;3.35;;;;;;;24.99;45.32;100254.75;4955715;28;20046;-80
2022/06/18 08:05:24;;;;;;;3.47;3.17;;;;;;;24.97;46.24;100254.94;4965957;28;20069;-80
2022/06/18 08:07:51;;;;;;;3.63;3.33;;;;;;;25.08;45.78;100256.94;4966967;28;20046;-80
2022/06/18 08:10:38;;;;;;;5.10;3.22;;;;;;;25.16;45.60;100255.00;4925339;28;20686;-81
2022/06/18 08:13:06;;;;;;;5.88;4.28;;;;;;;25.27;45.06;100251.63;4955563;28;20088;-80
2022/06/18 08:15:39;;;;;;;3.65;3.17;;;;;;;25.23;44.97;100245.78;4983326;28;20077;-80
2022/06/18 08:18:06;;;;;;;4.10;3.20;;;;;;;25.26;45.09;100245.34;4980499;28;20554;-81
2022/06/18 08:20:53;;;;;;;5.15;3.58;;;;;;;25.31;45.41;100250.09;4925323;28;20049;-81
2022/06/18 08:23:20;;;;;;;4.13;3.72;;;;;;;25.42;45.14;100245.84;4966901;28;20054;-82
2022/06/18 08:25:46;;;;;;;4.35;3.40;;;;;;;25.34;45.51;100246.97;4961631;28;20556;-81
2022/06/18 08:28:13;;;;;;;5.32;3.45;;;;;;;25.41;44.99;100241.47;4962564;28;20050;-82
2022/06/18 08:30:41;;;;;;;7.45;3.95;;;;;;;25.51;45.04;100230.91;4980396;28;20061;-81
2022/06/18 08:33:08;;;;;;;4.03;3.55;;;;;;;25.58;44.66;100237.09;4987119;28;20050;-81
2022/06/18 08:35:37;;;;;;;5.30;3.50;;;;;;;25.58;44.44;100231.66;4962020;28;20050;-81
2022/06/18 08:38:05;;;;;;;4.63;3.60;;;;;;;25.59;44.75;100221.63;4975865;28;20675;-81
2022/06/18 08:40:56;;;;;;;3.78;3.47;;;;;;;25.59;44.89;100225.16;4997888;28;20057;-84
2022/06/18 08:43:34;;;;;;;6.20;3.70;;;;;;;25.71;45.43;100220.66;4979121;28;20130;-85
2022/06/18 08:46:09;;;;;;;4.40;3.90;;;;;;;25.70;45.19;100223.63;4950261;28;20146;-82
2022/06/18 08:48:54;;;;;;;4.47;3.58;;;;;;;25.74;45.34;100224.81;4959474;28;20666;-84
2022/06/18 08:51:43;;;;;;;4.18;3.78;;;;;;;25.78;45.81;100224.13;4945153;28;20243;-81
2022/06/18 08:54:28;;;;;;;4.07;3.67;;;;;;;25.86;45.25;100219.47;4941161;28;20379;-81
2022/06/18 08:57:01;;;;;;;4.10;3.80;;;;;;;25.92;45.19;100222.09;4928554;28;20069;-83
2022/06/18 08:59:53;;;;;;;4.40;3.60;;;;;;;25.91;45.35;100217.75;4945736;28;20047;-83
2022/06/18 09:02:55;;;;;;;3.70;3.40;;;;;;;25.97;45.49;100216.81;4931671;28;20053;-82
2022/06/18 09:06:19;;;;;;;3.40;3.10;;;;;;;25.99;45.67;100217.44;4938815;28;20503;-83
2022/06/18 09:09:01;;;;;;;3.78;3.40;;;;;;;26.00;45.79;100212.81;4881982;28;20074;-82
2022/06/18 09:12:03;;;;;;;4.15;3.72;;;;;;;26.03;45.92;100211.53;4964313;28;20047;-81
2022/06/18 09:14:39;;;;;;;7.90;3.78;;;;;;;26.19;44.90;100206.28;4899216;28;20050;-82
2022/06/18 09:17:17;;;;;;;4.15;3.67;;;;;;;26.19;45.54;100203.56;4943266;28;20057;-82
2022/06/18 09:19:51;;;;;;;3.90;3.17;;;;;;;26.27;45.33;100205.16;4968787;28;20053;-81
2022/06/18 09:22:19;;;;;;;4.65;3.55;;;;;;;26.39;44.71;100202.50;4977878;28;20053;-85
2022/06/18 09:24:49;;;;;;;5.13;4.03;;;;;;;26.36;44.98;100194.78;4963749;28;20485;-82
2022/06/18 09:27:24;;;;;;;6.07;3.75;;;;;;;26.38;44.60;100184.47;4985860;28;20046;-86
2022/06/18 09:29:56;;;;;;;6.10;3.45;;;;;;;26.45;44.49;100189.84;4965114;28;20049;-86
2022/06/18 09:32:31;;;;;;;3.45;3.25;;;;;;;26.46;44.74;100189.63;4980390;28;20133;-81
2022/06/18 09:35:15;;;;;;;4.47;3.58;;;;;;;26.50;44.08;100188.06;4985243;28;20046;-82
2022/06/18 09:37:54;;;;;;;5.45;3.38;;;;;;;26.53;44.76;100181.34;4970802;28;20548;-82
2022/06/18 09:40:31;;;;;;;4.13;3.47;;;;;;;26.66;44.75;100177.59;4959002;28;20048;-81
2022/06/18 09:43:03;;;;;;;4.78;3.40;;;;;;;26.70;44.25;100176.09;4956011;28;20046;-81
2022/06/18 09:45:45;;;;;;;4.07;3.78;;;;;;;26.75;43.63;100168.88;4964749;28;20053;-81
2022/06/18 09:48:12;;;;;;;5.30;4.32;;;;;;;26.82;43.85;100179.66;4937409;28;20053;-81
2022/06/18 09:50:46;;;;;;;8.10;4.30;;;;;;;26.85;43.31;100171.84;4952839;28;20043;-81
2022/06/18 09:53:22;;;;;;;6.07;4.78;;;;;;;26.91;43.51;100166.53;4951413;28;20050;-83
2022/06/18 09:55:52;;;;;;;8.52;4.45;;;;;;;26.98;43.03;100167.25;4982287;28;20129;-83
2022/06/18 09:58:51;;;;;;;8.02;4.15;;;;;;;27.00;43.01;100165.94;4958081;28;20050;-82
2022/06/18 10:01:51;;;;;;;5.40;3.60;;;;;;;27.06;42.61;100177.78;4953392;28;20041;-82
2022/06/18 10:07:18;;;;;;;6.78;3.60;;;;;;;27.17;42.34;100163.34;4953165;28;20046;-82
2022/06/18 10:09:51;;;;;;;7.35;3.55;;;;;;;27.19;41.14;100163.13;4967680;28;20043;-84
2022/06/18 10:12:32;;;;;;;4.85;3.58;;;;;;;27.22;40.81;100157.19;4966119;28;20050;-84
2022/06/18 10:15:00;;;;;;;3.85;3.55;;;;;;;27.29;41.76;100152.47;4920794;28;20046;-85
2022/06/18 10:18:00;;;;;;;5.75;3.90;;;;;;;27.25;41.25;100146.66;4959703;28;20513;-83
2022/06/18 10:20:56;;;;;;;4.13;2.90;;;;;;;27.26;38.72;100148.31;4893252;28;20046;-83
2022/06/18 10:23:36;;;;;;;3.05;2.85;;;;;;;27.45;40.51;100148.16;4926881;28;20038;-83
2022/06/18 10:26:32;;;;;;;3.83;3.47;;;;;;;27.39;39.71;100144.50;4967561;28;20054;-80
2022/06/18 10:29:24;;;;;;;2.88;2.65;;;;;;;27.45;39.68;100148.16;4905500;28;20141;-80
2022/06/18 10:32:18;;;;;;;3.33;2.67;;;;;;;27.52;38.83;100132.50;4933642;28;20070;-80
2022/06/18 10:35:06;;;;;;;8.35;2.97;;;;;;;27.66;39.34;100133.09;4935779;28;21217;-79
2022/06/18 10:37:45;;;;;;;2.92;2.63;;;;;;;27.57;37.85;100132.63;4939444;28;20038;-83
2022/06/18 10:40:34;;;;;;;4.13;2.40;;;;;;;27.65;37.40;100115.03;4982113;28;20042;-83
2022/06/18 10:43:28;;;;;;;3.45;2.45;;;;;;;27.71;37.34;100114.91;4986732;28;20073;-83
2022/06/18 10:46:06;;;;;;;3.55;2.20;;;;;;;27.75;36.38;100111.69;4941351;28;20068;-80
2022/06/18 10:48:34;;;;;;;4.75;2.20;;;;;;;27.81;36.70;100114.31;4961946;28;20050;-80
2022/06/18 10:51:02;;;;;;;2.92;2.03;;;;;;;27.87;36.40;100107.88;4979251;28;20049;-81
2022/06/18 10:53:46;;;;;;;4.60;2.47;;;;;;;27.85;35.46;100107.28;4952811;28;20050;-80
2022/06/18 10:56:17;;;;;;;3.15;2.00;;;;;;;27.99;35.91;100096.13;4953451;28;20129;-80
2022/06/18 10:59:03;;;;;;;2.75;1.90;;;;;;;27.91;33.30;100094.56;4947277;28;20045;-80
2022/06/18 11:01:34;;;;;;;3.42;2.17;;;;;;;28.05;34.33;100097.84;4938701;28;20142;-80
2022/06/18 11:04:04;;;;;;;2.63;1.80;;;;;;;28.06;34.07;100091.31;4993957;28;20050;-81
2022/06/18 11:06:31;;;;;;;3.97;2.63;;;;;;;28.13;34.64;100094.72;4951434;28;20042;-80
2022/06/18 11:09:00;;;;;;;2.92;2.17;;;;;;;28.19;33.86;100085.56;4975724;28;20047;-80
2022/06/18 11:11:30;;;;;;;2.67;2.10;;;;;;;28.22;32.84;100078.78;4945384;28;20052;-80
2022/06/18 11:14:27;;;;;;;2.45;2.00;;;;;;;28.18;33.98;100077.59;4963701;28;20049;-80
2022/06/18 11:16:57;;;;;;;5.90;2.30;;;;;;;28.28;34.55;100083.25;4876227;28;20042;-80
2022/06/18 11:19:26;;;;;;;2.22;1.90;;;;;;;28.31;32.94;100074.56;4965192;28;20138;-80
2022/06/18 11:21:55;;;;;;;3.85;2.10;;;;;;;28.36;33.28;100077.38;4960447;28;20054;-76
2022/06/18 11:24:37;;;;;;;3.97;2.00;;;;;;;28.34;32.24;100074.91;4979411;28;20055;-79
2022/06/18 11:27:10;;;;;;;5.78;2.60;;;;;;;28.44;31.40;100076.13;4969754;28;20042;-81
2022/06/18 11:29:42;;;;;;;4.78;2.58;;;;;;;28.50;31.37;100067.81;4967970;28;20045;-80
2022/06/18 11:32:17;;;;;;;4.68;2.30;;;;;;;28.52;30.20;100060.22;4983403;28;20041;-80
2022/06/18 11:35:09;;;;;;;4.25;2.40;;;;;;;28.51;31.63;100063.19;4971632;28;20038;-81
2022/06/18 11:37:37;;;;;;;4.45;2.25;;;;;;;28.63;33.45;100063.09;4962557;28;20154;-81
2022/06/18 11:40:06;;;;;;;2.47;2.28;;;;;;;28.63;33.33;100049.44;4989263;28;20405;-81
2022/06/18 11:42:40;;;;;;;4.65;2.60;;;;;;;28.64;32.80;100051.09;4989208;28;20045;-85
2022/06/18 11:45:16;;;;;;;5.63;2.63;;;;;;;28.65;33.49;100055.47;4987982;28;20054;-84
2022/06/18 11:48:04;;;;;;;2.47;2.28;;;;;;;28.67;33.63;100047.84;4999495;28;20057;-82
2022/06/18 11:50:41;;;;;;;3.33;2.50;;;;;;;28.76;33.63;100043.63;4983695;28;20047;-80
2022/06/18 11:53:33;;;;;;;6.78;2.70;;;;;;;28.79;32.20;100029.44;4973414;28;20054;-80
2022/06/18 11:56:03;;;;;;;7.40;2.28;;;;;;;28.81;32.44;100023.75;4947826;28;20509;-82
2022/06/18 11:58:37;;;;;;;3.65;2.33;;;;;;;28.82;31.93;100026.22;4998883;28;20125;-77
2022/06/18 12:01:09;;;;;;;3.03;2.10;;;;;;;28.86;32.53;100016.44;4987190;28;20046;-77
2022/06/18 12:03:48;;;;;;;9.90;2.80;;;;;;;28.90;30.98;100025.81;4983906;28;20046;-77
2022/06/18 12:06:38;;;;;;;13.48;3.10;;;;;;;29.02;30.85;100020.19;4971431;28;20117;-76
2022/06/18 12:09:24;;;;;;;9.95;2.50;;;;;;;29.10;30.40;100014.31;4975707;28;20038;-76
2022/06/18 12:11:50;;;;;;;5.95;2.40;;;;;;;29.11;30.75;100007.78;4962533;28;20050;-76
2022/06/18 12:14:32;;;;;;;5.25;2.50;;;;;;;29.11;31.62;100009.69;4998034;28;20108;-76
2022/06/18 12:17:13;;;;;;;5.38;2.53;;;;;;;29.17;31.23;100000.47;4950795;28;20552;-76
2022/06/18 12:20:07;;;;;;;3.67;2.38;;;;;;;29.23;31.31;99998.63;4920017;28;20049;-78